sensor_id;sensor_type;location;lat;lon;timestamp;temperature;humidity
64987;DHT22;51532;52.108;9.360;2023-01-30T00:01:30;2.50;77.70
64987;DHT22;51532;52.108;9.360;2023-01-30T00:03:58;2.40;78.30
64987;DHT22;51532;52.108;9.360;2023-01-30T00:06:25;2.50;78.50
64987;DHT22;51532;52.108;9.360;2023-01-30T00:08:52;2.50;78.20
64987;DHT22;51532;52.108;9.360;2023-01-30T00:11:20;2.50;78.50
64987;DHT22;51532;52.108;9.360;2023-01-30T00:13:48;2.70;78.00
64987;DHT22;51532;52.108;9.360;2023-01-30T00:16:16;2.70;77.90
64987;DHT22;51532;52.108;9.360;2023-01-30T00:18:44;2.70;78.20
64987;DHT22;51532;52.108;9.360;2023-01-30T00:21:12;2.70;78.10
64987;DHT22;51532;52.108;9.360;2023-01-30T00:23:40;2.50;78.70
64987;DHT22;51532;52.108;9.360;2023-01-30T00:26:07;2.70;78.60
64987;DHT22;51532;52.108;9.360;2023-01-30T00:28:37;2.70;78.40
64987;DHT22;51532;52.108;9.360;2023-01-30T00:31:05;2.70;78.70
64987;DHT22;51532;52.108;9.360;2023-01-30T00:33:32;2.80;78.50
64987;DHT22;51532;52.108;9.360;2023-01-30T00:36:00;2.70;78.70
64987;DHT22;51532;52.108;9.360;2023-01-30T00:38:27;2.80;78.60
64987;DHT22;51532;52.108;9.360;2023-01-30T00:40:54;2.80;78.60
64987;DHT22;51532;52.108;9.360;2023-01-30T00:43:21;2.90;78.70
64987;DHT22;51532;52.108;9.360;2023-01-30T00:46:20;2.90;78.70
64987;DHT22;51532;52.108;9.360;2023-01-30T00:49:07;2.90;78.80
64987;DHT22;51532;52.108;9.360;2023-01-30T00:51:33;2.90;79.00
64987;DHT22;51532;52.108;9.360;2023-01-30T00:54:00;2.90;79.00
64987;DHT22;51532;52.108;9.360;2023-01-30T00:56:27;2.90;78.90
64987;DHT22;51532;52.108;9.360;2023-01-30T00:58:56;2.90;79.20
64987;DHT22;51532;52.108;9.360;2023-01-30T01:01:22;2.90;79.30
64987;DHT22;51532;52.108;9.360;2023-01-30T01:03:49;2.90;79.30
64987;DHT22;51532;52.108;9.360;2023-01-30T01:06:16;2.90;79.30
64987;DHT22;51532;52.108;9.360;2023-01-30T01:08:45;3.00;79.30
64987;DHT22;51532;52.108;9.360;2023-01-30T01:11:12;2.90;79.50
64987;DHT22;51532;52.108;9.360;2023-01-30T01:13:54;2.90;79.70
64987;DHT22;51532;52.108;9.360;2023-01-30T01:16:22;2.90;80.20
64987;DHT22;51532;52.108;9.360;2023-01-30T01:18:49;2.90;80.80
64987;DHT22;51532;52.108;9.360;2023-01-30T01:21:17;2.90;80.90
64987;DHT22;51532;52.108;9.360;2023-01-30T01:23:50;2.90;80.80
64987;DHT22;51532;52.108;9.360;2023-01-30T01:26:18;2.80;81.30
64987;DHT22;51532;52.108;9.360;2023-01-30T01:28:45;2.90;81.10
64987;DHT22;51532;52.108;9.360;2023-01-30T01:31:14;2.90;81.40
64987;DHT22;51532;52.108;9.360;2023-01-30T01:33:41;2.90;81.60
64987;DHT22;51532;52.108;9.360;2023-01-30T01:36:08;2.90;82.10
64987;DHT22;51532;52.108;9.360;2023-01-30T01:38:35;2.90;82.90
64987;DHT22;51532;52.108;9.360;2023-01-30T01:41:01;2.80;83.20
64987;DHT22;51532;52.108;9.360;2023-01-30T01:43:32;2.80;83.50
64987;DHT22;51532;52.108;9.360;2023-01-30T01:46:19;2.80;83.90
64987;DHT22;51532;52.108;9.360;2023-01-30T01:48:52;2.70;83.60
64987;DHT22;51532;52.108;9.360;2023-01-30T01:54:18;2.80;84.10
64987;DHT22;51532;52.108;9.360;2023-01-30T01:56:48;2.70;84.00
64987;DHT22;51532;52.108;9.360;2023-01-30T01:59:27;2.70;84.00
64987;DHT22;51532;52.108;9.360;2023-01-30T02:01:59;2.90;83.20
64987;DHT22;51532;52.108;9.360;2023-01-30T02:04:27;2.90;83.20
64987;DHT22;51532;52.108;9.360;2023-01-30T02:07:17;3.00;82.40
64987;DHT22;51532;52.108;9.360;2023-01-30T02:09:47;2.90;82.70
64987;DHT22;51532;52.108;9.360;2023-01-30T02:12:14;3.00;82.50
64987;DHT22;51532;52.108;9.360;2023-01-30T02:14:42;3.00;82.50
64987;DHT22;51532;52.108;9.360;2023-01-30T02:17:12;3.10;82.40
64987;DHT22;51532;52.108;9.360;2023-01-30T02:20:20;3.10;82.00
64987;DHT22;51532;52.108;9.360;2023-01-30T02:23:21;3.00;82.70
64987;DHT22;51532;52.108;9.360;2023-01-30T02:42:19;3.10;82.70
64987;DHT22;51532;52.108;9.360;2023-01-30T02:45:58;3.10;82.50
64987;DHT22;51532;52.108;9.360;2023-01-30T02:48:06;3.10;83.00
64987;DHT22;51532;52.108;9.360;2023-01-30T02:50:48;3.10;83.00
64987;DHT22;51532;52.108;9.360;2023-01-30T02:53:16;3.10;83.00
64987;DHT22;51532;52.108;9.360;2023-01-30T02:55:43;3.20;82.90
64987;DHT22;51532;52.108;9.360;2023-01-30T02:58:10;3.10;82.90
64987;DHT22;51532;52.108;9.360;2023-01-30T03:06:29;3.20;83.50
64987;DHT22;51532;52.108;9.360;2023-01-30T03:14:20;3.30;84.10
64987;DHT22;51532;52.108;9.360;2023-01-30T03:16:53;3.30;83.90
64987;DHT22;51532;52.108;9.360;2023-01-30T03:19:20;3.30;84.10
64987;DHT22;51532;52.108;9.360;2023-01-30T03:21:48;3.30;84.40
64987;DHT22;51532;52.108;9.360;2023-01-30T03:24:16;3.30;84.50
64987;DHT22;51532;52.108;9.360;2023-01-30T03:26:47;3.30;84.50
64987;DHT22;51532;52.108;9.360;2023-01-30T03:29:15;3.30;84.70
64987;DHT22;51532;52.108;9.360;2023-01-30T03:31:42;3.40;84.80
64987;DHT22;51532;52.108;9.360;2023-01-30T03:34:09;3.30;85.10
64987;DHT22;51532;52.108;9.360;2023-01-30T03:36:37;3.50;85.10
64987;DHT22;51532;52.108;9.360;2023-01-30T03:39:04;3.50;85.50
64987;DHT22;51532;52.108;9.360;2023-01-30T03:41:31;3.40;85.90
64987;DHT22;51532;52.108;9.360;2023-01-30T03:44:00;3.50;86.20
64987;DHT22;51532;52.108;9.360;2023-01-30T03:46:27;3.30;86.20
64987;DHT22;51532;52.108;9.360;2023-01-30T03:48:54;3.50;86.20
64987;DHT22;51532;52.108;9.360;2023-01-30T03:51:21;3.60;85.70
64987;DHT22;51532;52.108;9.360;2023-01-30T03:53:47;3.50;86.10
64987;DHT22;51532;52.108;9.360;2023-01-30T03:56:14;3.50;86.20
64987;DHT22;51532;52.108;9.360;2023-01-30T03:58:41;3.60;86.30
64987;DHT22;51532;52.108;9.360;2023-01-30T04:01:16;3.60;86.10
64987;DHT22;51532;52.108;9.360;2023-01-30T04:03:43;3.60;86.30
64987;DHT22;51532;52.108;9.360;2023-01-30T04:06:10;3.60;86.50
64987;DHT22;51532;52.108;9.360;2023-01-30T04:08:37;3.80;86.30
64987;DHT22;51532;52.108;9.360;2023-01-30T04:11:05;3.80;86.20
64987;DHT22;51532;52.108;9.360;2023-01-30T04:13:32;3.80;86.30
64987;DHT22;51532;52.108;9.360;2023-01-30T04:16:15;3.90;86.40
64987;DHT22;51532;52.108;9.360;2023-01-30T04:19:05;3.90;86.30
64987;DHT22;51532;52.108;9.360;2023-01-30T04:21:33;3.90;86.50
64987;DHT22;51532;52.108;9.360;2023-01-30T04:23:59;3.90;86.40
64987;DHT22;51532;52.108;9.360;2023-01-30T04:26:26;3.90;86.30
64987;DHT22;51532;52.108;9.360;2023-01-30T04:28:54;3.90;86.30
64987;DHT22;51532;52.108;9.360;2023-01-30T04:31:21;3.90;86.50
64987;DHT22;51532;52.108;9.360;2023-01-30T04:33:57;3.90;86.30
64987;DHT22;51532;52.108;9.360;2023-01-30T04:36:24;4.00;86.20
64987;DHT22;51532;52.108;9.360;2023-01-30T04:38:51;4.00;86.00
64987;DHT22;51532;52.108;9.360;2023-01-30T04:41:20;4.00;86.20
64987;DHT22;51532;52.108;9.360;2023-01-30T04:43:47;4.00;86.10
64987;DHT22;51532;52.108;9.360;2023-01-30T04:46:23;4.00;86.30
64987;DHT22;51532;52.108;9.360;2023-01-30T04:48:50;4.10;86.30
64987;DHT22;51532;52.108;9.360;2023-01-30T04:51:17;4.10;86.20
64987;DHT22;51532;52.108;9.360;2023-01-30T04:53:46;4.00;86.60
64987;DHT22;51532;52.108;9.360;2023-01-30T04:56:13;4.00;86.70
64987;DHT22;51532;52.108;9.360;2023-01-30T04:58:40;4.10;86.30
64987;DHT22;51532;52.108;9.360;2023-01-30T05:01:29;4.10;86.60
64987;DHT22;51532;52.108;9.360;2023-01-30T05:03:58;4.10;86.00
64987;DHT22;51532;52.108;9.360;2023-01-30T05:06:24;4.20;86.00
64987;DHT22;51532;52.108;9.360;2023-01-30T05:08:53;4.20;86.20
64987;DHT22;51532;52.108;9.360;2023-01-30T05:11:21;4.10;86.60
64987;DHT22;51532;52.108;9.360;2023-01-30T05:13:49;4.10;86.80
64987;DHT22;51532;52.108;9.360;2023-01-30T05:16:17;4.20;87.00
64987;DHT22;51532;52.108;9.360;2023-01-30T05:18:44;4.10;86.60
64987;DHT22;51532;52.108;9.360;2023-01-30T05:21:17;4.30;86.40
64987;DHT22;51532;52.108;9.360;2023-01-30T05:23:44;4.30;86.10
64987;DHT22;51532;52.108;9.360;2023-01-30T05:26:12;4.30;86.00
64987;DHT22;51532;52.108;9.360;2023-01-30T05:28:40;4.30;86.00
64987;DHT22;51532;52.108;9.360;2023-01-30T05:31:12;4.40;85.90
64987;DHT22;51532;52.108;9.360;2023-01-30T05:33:40;4.30;85.70
64987;DHT22;51532;52.108;9.360;2023-01-30T05:36:13;4.30;85.80
64987;DHT22;51532;52.108;9.360;2023-01-30T05:38:41;4.30;86.10
64987;DHT22;51532;52.108;9.360;2023-01-30T05:41:10;4.30;86.30
64987;DHT22;51532;52.108;9.360;2023-01-30T05:43:37;4.30;86.50
64987;DHT22;51532;52.108;9.360;2023-01-30T05:46:05;4.40;87.20
64987;DHT22;51532;52.108;9.360;2023-01-30T05:48:32;4.40;86.80
64987;DHT22;51532;52.108;9.360;2023-01-30T05:50:59;4.40;86.70
64987;DHT22;51532;52.108;9.360;2023-01-30T05:53:30;4.40;86.70
64987;DHT22;51532;52.108;9.360;2023-01-30T05:55:58;4.40;86.70
64987;DHT22;51532;52.108;9.360;2023-01-30T05:58:26;4.40;87.50
64987;DHT22;51532;52.108;9.360;2023-01-30T06:00:53;4.30;89.00
64987;DHT22;51532;52.108;9.360;2023-01-30T06:03:20;4.30;90.40
64987;DHT22;51532;52.108;9.360;2023-01-30T06:05:47;4.20;90.90
64987;DHT22;51532;52.108;9.360;2023-01-30T06:08:14;4.20;91.10
64987;DHT22;51532;52.108;9.360;2023-01-30T06:10:41;4.20;91.20
64987;DHT22;51532;52.108;9.360;2023-01-30T06:13:07;4.30;90.70
64987;DHT22;51532;52.108;9.360;2023-01-30T06:15:37;4.30;91.00
64987;DHT22;51532;52.108;9.360;2023-01-30T06:18:04;4.20;91.40
64987;DHT22;51532;52.108;9.360;2023-01-30T06:20:30;4.20;92.00
64987;DHT22;51532;52.108;9.360;2023-01-30T06:22:57;4.10;92.50
64987;DHT22;51532;52.108;9.360;2023-01-30T06:25:24;4.10;92.90
64987;DHT22;51532;52.108;9.360;2023-01-30T06:27:51;4.10;93.00
64987;DHT22;51532;52.108;9.360;2023-01-30T06:30:18;4.10;93.30
64987;DHT22;51532;52.108;9.360;2023-01-30T06:32:49;4.10;93.50
64987;DHT22;51532;52.108;9.360;2023-01-30T06:35:16;4.10;93.80
64987;DHT22;51532;52.108;9.360;2023-01-30T06:37:44;4.10;94.00
64987;DHT22;51532;52.108;9.360;2023-01-30T06:40:11;4.10;94.20
64987;DHT22;51532;52.108;9.360;2023-01-30T06:42:45;4.00;94.20
64987;DHT22;51532;52.108;9.360;2023-01-30T06:45:14;4.10;94.30
64987;DHT22;51532;52.108;9.360;2023-01-30T06:50:13;4.10;94.30
64987;DHT22;51532;52.108;9.360;2023-01-30T06:52:45;4.10;94.30
64987;DHT22;51532;52.108;9.360;2023-01-30T06:55:14;4.20;94.30
64987;DHT22;51532;52.108;9.360;2023-01-30T06:57:43;4.10;94.30
64987;DHT22;51532;52.108;9.360;2023-01-30T07:00:18;4.10;94.30
64987;DHT22;51532;52.108;9.360;2023-01-30T07:02:46;4.10;94.30
64987;DHT22;51532;52.108;9.360;2023-01-30T07:05:13;4.10;94.30
64987;DHT22;51532;52.108;9.360;2023-01-30T07:07:40;4.10;94.30
64987;DHT22;51532;52.108;9.360;2023-01-30T07:10:07;4.20;94.20
64987;DHT22;51532;52.108;9.360;2023-01-30T07:12:35;4.20;94.10
64987;DHT22;51532;52.108;9.360;2023-01-30T07:15:04;4.30;94.00
64987;DHT22;51532;52.108;9.360;2023-01-30T07:17:32;4.60;93.70
64987;DHT22;51532;52.108;9.360;2023-01-30T07:19:59;4.40;93.40
64987;DHT22;51532;52.108;9.360;2023-01-30T07:22:26;4.50;92.80
64987;DHT22;51532;52.108;9.360;2023-01-30T07:24:52;4.50;91.80
64987;DHT22;51532;52.108;9.360;2023-01-30T07:27:19;4.50;91.60
64987;DHT22;51532;52.108;9.360;2023-01-30T07:29:46;4.40;91.70
64987;DHT22;51532;52.108;9.360;2023-01-30T07:32:16;4.40;91.00
64987;DHT22;51532;52.108;9.360;2023-01-30T07:34:44;4.40;90.20
64987;DHT22;51532;52.108;9.360;2023-01-30T07:37:11;4.40;90.30
64987;DHT22;51532;52.108;9.360;2023-01-30T07:39:38;4.40;90.10
64987;DHT22;51532;52.108;9.360;2023-01-30T07:42:05;4.40;89.70
64987;DHT22;51532;52.108;9.360;2023-01-30T07:44:32;4.40;90.60
64987;DHT22;51532;52.108;9.360;2023-01-30T07:47:01;4.50;88.60
64987;DHT22;51532;52.108;9.360;2023-01-30T07:49:28;4.40;89.10
64987;DHT22;51532;52.108;9.360;2023-01-30T07:51:55;4.30;89.50
64987;DHT22;51532;52.108;9.360;2023-01-30T07:54:22;4.40;88.80
64987;DHT22;51532;52.108;9.360;2023-01-30T07:56:49;4.50;87.90
64987;DHT22;51532;52.108;9.360;2023-01-30T07:59:15;4.50;87.70
64987;DHT22;51532;52.108;9.360;2023-01-30T08:01:42;4.40;88.60
64987;DHT22;51532;52.108;9.360;2023-01-30T08:04:09;4.50;87.60
64987;DHT22;51532;52.108;9.360;2023-01-30T08:06:36;4.60;85.20
64987;DHT22;51532;52.108;9.360;2023-01-30T08:09:05;4.60;86.60
64987;DHT22;51532;52.108;9.360;2023-01-30T08:11:33;4.70;85.20
64987;DHT22;51532;52.108;9.360;2023-01-30T08:14:00;4.80;86.70
64987;DHT22;51532;52.108;9.360;2023-01-30T08:16:27;4.70;86.90
64987;DHT22;51532;52.108;9.360;2023-01-30T08:18:54;4.70;85.90
64987;DHT22;51532;52.108;9.360;2023-01-30T08:21:21;4.90;84.90
64987;DHT22;51532;52.108;9.360;2023-01-30T08:23:48;4.90;83.40
64987;DHT22;51532;52.108;9.360;2023-01-30T08:26:15;5.00;84.50
64987;DHT22;51532;52.108;9.360;2023-01-30T08:28:41;5.00;82.60
64987;DHT22;51532;52.108;9.360;2023-01-30T08:31:10;5.10;81.90
64987;DHT22;51532;52.108;9.360;2023-01-30T08:33:37;5.00;83.20
64987;DHT22;51532;52.108;9.360;2023-01-30T08:36:04;5.10;82.10
64987;DHT22;51532;52.108;9.360;2023-01-30T08:38:31;5.20;81.20
64987;DHT22;51532;52.108;9.360;2023-01-30T08:40:58;5.30;79.00
64987;DHT22;51532;52.108;9.360;2023-01-30T08:43:26;5.30;78.40
64987;DHT22;51532;52.108;9.360;2023-01-30T08:45:54;5.30;77.60
64987;DHT22;51532;52.108;9.360;2023-01-30T08:48:21;5.30;77.40
64987;DHT22;51532;52.108;9.360;2023-01-30T08:50:55;5.30;77.10
64987;DHT22;51532;52.108;9.360;2023-01-30T08:53:22;5.40;77.20
64987;DHT22;51532;52.108;9.360;2023-01-30T08:55:51;5.40;76.80
64987;DHT22;51532;52.108;9.360;2023-01-30T08:58:19;5.40;77.20
64987;DHT22;51532;52.108;9.360;2023-01-30T09:00:46;5.50;76.30
64987;DHT22;51532;52.108;9.360;2023-01-30T09:03:15;5.50;75.50
64987;DHT22;51532;52.108;9.360;2023-01-30T09:05:42;5.50;76.50
64987;DHT22;51532;52.108;9.360;2023-01-30T09:08:09;5.60;73.50
64987;DHT22;51532;52.108;9.360;2023-01-30T09:10:36;5.60;73.70
64987;DHT22;51532;52.108;9.360;2023-01-30T09:13:03;5.60;73.90
64987;DHT22;51532;52.108;9.360;2023-01-30T09:15:31;5.60;73.00
64987;DHT22;51532;52.108;9.360;2023-01-30T09:17:58;5.60;73.20
64987;DHT22;51532;52.108;9.360;2023-01-30T09:20:25;5.60;73.00
64987;DHT22;51532;52.108;9.360;2023-01-30T09:22:51;5.70;73.10
64987;DHT22;51532;52.108;9.360;2023-01-30T09:25:18;5.70;71.20
64987;DHT22;51532;52.108;9.360;2023-01-30T09:27:48;5.70;71.50
64987;DHT22;51532;52.108;9.360;2023-01-30T09:30:15;5.70;71.60
64987;DHT22;51532;52.108;9.360;2023-01-30T09:32:43;5.80;72.30
64987;DHT22;51532;52.108;9.360;2023-01-30T09:35:09;5.80;71.70
64987;DHT22;51532;52.108;9.360;2023-01-30T09:37:36;5.90;71.90
64987;DHT22;51532;52.108;9.360;2023-01-30T09:40:03;5.90;71.40
64987;DHT22;51532;52.108;9.360;2023-01-30T09:45:36;5.90;70.60
64987;DHT22;51532;52.108;9.360;2023-01-30T09:53:56;5.80;71.10
64987;DHT22;51532;52.108;9.360;2023-01-30T09:56:26;5.80;69.80
64987;DHT22;51532;52.108;9.360;2023-01-30T09:58:58;5.80;70.40
64987;DHT22;51532;52.108;9.360;2023-01-30T10:01:39;5.80;69.50
64987;DHT22;51532;52.108;9.360;2023-01-30T10:04:22;5.80;69.90
64987;DHT22;51532;52.108;9.360;2023-01-30T10:07:03;5.90;69.50
64987;DHT22;51532;52.108;9.360;2023-01-30T10:09:58;6.00;69.10
64987;DHT22;51532;52.108;9.360;2023-01-30T10:12:39;6.10;68.50
64987;DHT22;51532;52.108;9.360;2023-01-30T10:15:35;6.10;68.10
64987;DHT22;51532;52.108;9.360;2023-01-30T10:21:17;5.70;74.00
64987;DHT22;51532;52.108;9.360;2023-01-30T10:26:29;5.50;74.70
64987;DHT22;51532;52.108;9.360;2023-01-30T10:29:05;5.50;74.30
64987;DHT22;51532;52.108;9.360;2023-01-30T10:31:49;5.50;73.50
64987;DHT22;51532;52.108;9.360;2023-01-30T10:34:28;5.60;73.80
64987;DHT22;51532;52.108;9.360;2023-01-30T10:39:41;5.80;73.10
64987;DHT22;51532;52.108;9.360;2023-01-30T10:42:33;5.80;72.80
64987;DHT22;51532;52.108;9.360;2023-01-30T10:45:37;5.90;72.30
64987;DHT22;51532;52.108;9.360;2023-01-30T10:48:18;5.90;71.60
64987;DHT22;51532;52.108;9.360;2023-01-30T10:51:22;5.90;71.70
64987;DHT22;51532;52.108;9.360;2023-01-30T10:54:02;5.90;71.90
64987;DHT22;51532;52.108;9.360;2023-01-30T10:56:42;5.90;71.30
64987;DHT22;51532;52.108;9.360;2023-01-30T11:02:23;6.00;70.30
64987;DHT22;51532;52.108;9.360;2023-01-30T11:04:59;6.00;70.50
64987;DHT22;51532;52.108;9.360;2023-01-30T11:07:31;6.10;70.40
64987;DHT22;51532;52.108;9.360;2023-01-30T11:09:58;6.20;68.70
64987;DHT22;51532;52.108;9.360;2023-01-30T11:12:26;6.30;69.00
64987;DHT22;51532;52.108;9.360;2023-01-30T11:15:01;6.40;68.20
64987;DHT22;51532;52.108;9.360;2023-01-30T11:17:31;6.20;71.50
64987;DHT22;51532;52.108;9.360;2023-01-30T11:22:48;5.60;73.70
64987;DHT22;51532;52.108;9.360;2023-01-30T11:25:20;5.60;73.30
64987;DHT22;51532;52.108;9.360;2023-01-30T11:27:54;5.60;74.00
64987;DHT22;51532;52.108;9.360;2023-01-30T11:30:27;5.80;72.90
64987;DHT22;51532;52.108;9.360;2023-01-30T11:33:06;5.90;72.70
64987;DHT22;51532;52.108;9.360;2023-01-30T11:35:57;6.00;72.00
64987;DHT22;51532;52.108;9.360;2023-01-30T11:38:33;6.20;70.70
64987;DHT22;51532;52.108;9.360;2023-01-30T11:43:38;6.20;70.80
64987;DHT22;51532;52.108;9.360;2023-01-30T11:46:06;6.30;69.80
64987;DHT22;51532;52.108;9.360;2023-01-30T11:48:42;6.40;70.20
64987;DHT22;51532;52.108;9.360;2023-01-30T11:51:33;6.60;68.80
64987;DHT22;51532;52.108;9.360;2023-01-30T11:54:06;6.60;68.00
64987;DHT22;51532;52.108;9.360;2023-01-30T11:56:54;6.60;67.60
64987;DHT22;51532;52.108;9.360;2023-01-30T11:59:27;6.60;67.90
64987;DHT22;51532;52.108;9.360;2023-01-30T12:02:12;6.50;68.20
64987;DHT22;51532;52.108;9.360;2023-01-30T12:04:44;6.50;68.50
64987;DHT22;51532;52.108;9.360;2023-01-30T12:07:26;6.50;68.30
64987;DHT22;51532;52.108;9.360;2023-01-30T12:09:55;6.60;69.10
64987;DHT22;51532;52.108;9.360;2023-01-30T12:12:30;6.60;68.20
64987;DHT22;51532;52.108;9.360;2023-01-30T12:23:51;6.10;73.30
64987;DHT22;51532;52.108;9.360;2023-01-30T12:26:33;5.90;74.90
64987;DHT22;51532;52.108;9.360;2023-01-30T12:32:12;5.50;76.10
64987;DHT22;51532;52.108;9.360;2023-01-30T12:34:40;5.50;75.70
64987;DHT22;51532;52.108;9.360;2023-01-30T12:37:31;5.40;75.70
64987;DHT22;51532;52.108;9.360;2023-01-30T12:40:47;5.50;75.50
64987;DHT22;51532;52.108;9.360;2023-01-30T12:43:23;5.50;75.70
64987;DHT22;51532;52.108;9.360;2023-01-30T12:45:57;5.70;74.70
64987;DHT22;51532;52.108;9.360;2023-01-30T12:48:46;5.70;74.30
64987;DHT22;51532;52.108;9.360;2023-01-30T12:55:01;5.80;72.90
64987;DHT22;51532;52.108;9.360;2023-01-30T13:00:31;5.30;77.70
64987;DHT22;51532;52.108;9.360;2023-01-30T13:03:18;5.20;77.70
64987;DHT22;51532;52.108;9.360;2023-01-30T13:08:53;5.20;77.60
64987;DHT22;51532;52.108;9.360;2023-01-30T13:23:10;5.70;73.60
64987;DHT22;51532;52.108;9.360;2023-01-30T13:26:01;5.90;72.50
64987;DHT22;51532;52.108;9.360;2023-01-30T13:28:44;6.00;72.40
64987;DHT22;51532;52.108;9.360;2023-01-30T13:31:15;5.90;72.30
64987;DHT22;51532;52.108;9.360;2023-01-30T13:33:44;6.00;72.00
64987;DHT22;51532;52.108;9.360;2023-01-30T13:36:18;6.00;72.00
64987;DHT22;51532;52.108;9.360;2023-01-30T13:41:24;6.00;71.80
64987;DHT22;51532;52.108;9.360;2023-01-30T13:43:53;5.90;71.40
64987;DHT22;51532;52.108;9.360;2023-01-30T13:46:27;5.90;71.80
64987;DHT22;51532;52.108;9.360;2023-01-30T13:49:21;5.90;71.70
64987;DHT22;51532;52.108;9.360;2023-01-30T13:52:08;6.00;71.00
64987;DHT22;51532;52.108;9.360;2023-01-30T13:54:51;6.00;71.10
64987;DHT22;51532;52.108;9.360;2023-01-30T14:00:33;5.80;73.30
64987;DHT22;51532;52.108;9.360;2023-01-30T14:08:24;5.60;74.70
64987;DHT22;51532;52.108;9.360;2023-01-30T14:10:53;5.70;73.70
64987;DHT22;51532;52.108;9.360;2023-01-30T14:13:22;5.80;72.90
64987;DHT22;51532;52.108;9.360;2023-01-30T14:15:59;5.90;71.50
64987;DHT22;51532;52.108;9.360;2023-01-30T14:18:34;5.90;70.40
64987;DHT22;51532;52.108;9.360;2023-01-30T14:23:55;6.00;70.10
64987;DHT22;51532;52.108;9.360;2023-01-30T14:39:57;6.20;68.70
64987;DHT22;51532;52.108;9.360;2023-01-30T14:42:26;6.30;68.40
64987;DHT22;51532;52.108;9.360;2023-01-30T14:45:02;6.20;68.00
64987;DHT22;51532;52.108;9.360;2023-01-30T14:47:30;6.20;68.00
64987;DHT22;51532;52.108;9.360;2023-01-30T14:50:17;6.10;68.20
64987;DHT22;51532;52.108;9.360;2023-01-30T14:52:46;6.10;68.50
64987;DHT22;51532;52.108;9.360;2023-01-30T14:55:21;6.10;68.50
64987;DHT22;51532;52.108;9.360;2023-01-30T14:58:01;6.10;68.20
64987;DHT22;51532;52.108;9.360;2023-01-30T15:00:31;6.10;67.90
64987;DHT22;51532;52.108;9.360;2023-01-30T15:03:14;6.20;68.40
64987;DHT22;51532;52.108;9.360;2023-01-30T15:05:44;6.20;67.80
64987;DHT22;51532;52.108;9.360;2023-01-30T15:08:19;6.20;67.50
64987;DHT22;51532;52.108;9.360;2023-01-30T15:11:21;6.20;67.10
64987;DHT22;51532;52.108;9.360;2023-01-30T15:14:03;6.10;67.20
64987;DHT22;51532;52.108;9.360;2023-01-30T15:25:45;6.20;67.70
64987;DHT22;51532;52.108;9.360;2023-01-30T15:31:18;6.10;68.80
64987;DHT22;51532;52.108;9.360;2023-01-30T15:33:52;6.00;69.00
64987;DHT22;51532;52.108;9.360;2023-01-30T15:36:31;6.10;68.70
64987;DHT22;51532;52.108;9.360;2023-01-30T15:39:04;6.00;72.10
64987;DHT22;51532;52.108;9.360;2023-01-30T15:41:38;5.80;72.50
64987;DHT22;51532;52.108;9.360;2023-01-30T15:44:26;5.80;71.40
64987;DHT22;51532;52.108;9.360;2023-01-30T15:50:03;5.80;70.90
64987;DHT22;51532;52.108;9.360;2023-01-30T15:52:39;5.70;72.10
64987;DHT22;51532;52.108;9.360;2023-01-30T15:55:28;5.70;72.60
64987;DHT22;51532;52.108;9.360;2023-01-30T15:57:58;5.60;72.40
64987;DHT22;51532;52.108;9.360;2023-01-30T16:00:29;5.60;73.30
64987;DHT22;51532;52.108;9.360;2023-01-30T16:02:58;5.60;73.60
64987;DHT22;51532;52.108;9.360;2023-01-30T16:05:27;5.50;73.20
64987;DHT22;51532;52.108;9.360;2023-01-30T16:07:55;5.40;73.90
64987;DHT22;51532;52.108;9.360;2023-01-30T16:10:25;5.50;73.70
64987;DHT22;51532;52.108;9.360;2023-01-30T16:12:55;5.50;74.70
64987;DHT22;51532;52.108;9.360;2023-01-30T16:18:41;5.30;76.30
64987;DHT22;51532;52.108;9.360;2023-01-30T16:21:27;5.20;78.20
64987;DHT22;51532;52.108;9.360;2023-01-30T16:24:14;5.00;79.00
64987;DHT22;51532;52.108;9.360;2023-01-30T16:26:45;5.00;79.20
64987;DHT22;51532;52.108;9.360;2023-01-30T16:29:21;4.90;79.00
64987;DHT22;51532;52.108;9.360;2023-01-30T16:31:50;5.00;78.00
64987;DHT22;51532;52.108;9.360;2023-01-30T16:34:24;5.10;77.20
64987;DHT22;51532;52.108;9.360;2023-01-30T16:36:53;5.20;77.60
64987;DHT22;51532;52.108;9.360;2023-01-30T16:39:38;5.10;78.90
64987;DHT22;51532;52.108;9.360;2023-01-30T16:42:25;5.10;78.50
64987;DHT22;51532;52.108;9.360;2023-01-30T16:45:31;5.10;77.90
64987;DHT22;51532;52.108;9.360;2023-01-30T16:50:46;5.30;77.50
64987;DHT22;51532;52.108;9.360;2023-01-30T16:53:16;5.30;76.70
64987;DHT22;51532;52.108;9.360;2023-01-30T16:56:09;5.30;75.70
64987;DHT22;51532;52.108;9.360;2023-01-30T16:58:44;5.20;75.80
64987;DHT22;51532;52.108;9.360;2023-01-30T17:01:12;5.30;75.70
64987;DHT22;51532;52.108;9.360;2023-01-30T17:03:42;5.30;75.00
64987;DHT22;51532;52.108;9.360;2023-01-30T17:06:22;5.30;75.30
64987;DHT22;51532;52.108;9.360;2023-01-30T17:08:51;5.30;77.10
64987;DHT22;51532;52.108;9.360;2023-01-30T17:11:36;5.20;77.50
64987;DHT22;51532;52.108;9.360;2023-01-30T17:16:42;5.00;77.90
64987;DHT22;51532;52.108;9.360;2023-01-30T17:19:09;5.00;77.90
64987;DHT22;51532;52.108;9.360;2023-01-30T17:22:03;5.00;77.60
64987;DHT22;51532;52.108;9.360;2023-01-30T17:24:31;5.00;76.50
64987;DHT22;51532;52.108;9.360;2023-01-30T17:27:00;5.10;75.40
64987;DHT22;51532;52.108;9.360;2023-01-30T17:29:30;5.30;74.90
64987;DHT22;51532;52.108;9.360;2023-01-30T17:32:14;5.30;74.30
64987;DHT22;51532;52.108;9.360;2023-01-30T17:34:41;5.30;74.60
64987;DHT22;51532;52.108;9.360;2023-01-30T17:37:18;5.30;74.20
64987;DHT22;51532;52.108;9.360;2023-01-30T17:39:47;5.30;74.20
64987;DHT22;51532;52.108;9.360;2023-01-30T17:42:15;5.30;74.60
64987;DHT22;51532;52.108;9.360;2023-01-30T17:44:47;5.30;74.40
64987;DHT22;51532;52.108;9.360;2023-01-30T17:47:14;5.30;74.60
64987;DHT22;51532;52.108;9.360;2023-01-30T17:49:41;5.30;74.40
64987;DHT22;51532;52.108;9.360;2023-01-30T17:52:11;5.30;74.30
64987;DHT22;51532;52.108;9.360;2023-01-30T17:54:38;5.20;74.30
64987;DHT22;51532;52.108;9.360;2023-01-30T17:57:06;5.20;74.40
64987;DHT22;51532;52.108;9.360;2023-01-30T17:59:35;5.10;74.50
64987;DHT22;51532;52.108;9.360;2023-01-30T18:02:02;5.10;74.70
64987;DHT22;51532;52.108;9.360;2023-01-30T18:04:29;5.10;74.80
64987;DHT22;51532;52.108;9.360;2023-01-30T18:07:00;5.20;74.70
64987;DHT22;51532;52.108;9.360;2023-01-30T18:09:29;5.10;75.00
64987;DHT22;51532;52.108;9.360;2023-01-30T18:11:57;5.10;75.00
64987;DHT22;51532;52.108;9.360;2023-01-30T18:14:24;5.10;75.00
64987;DHT22;51532;52.108;9.360;2023-01-30T18:16:50;5.10;75.30
64987;DHT22;51532;52.108;9.360;2023-01-30T18:19:17;5.10;74.80
64987;DHT22;51532;52.108;9.360;2023-01-30T18:21:49;5.10;75.00
64987;DHT22;51532;52.108;9.360;2023-01-30T18:24:16;5.10;74.70
64987;DHT22;51532;52.108;9.360;2023-01-30T18:26:45;5.10;75.00
64987;DHT22;51532;52.108;9.360;2023-01-30T18:29:12;5.10;75.00
64987;DHT22;51532;52.108;9.360;2023-01-30T18:31:40;5.10;74.80
64987;DHT22;51532;52.108;9.360;2023-01-30T18:34:09;5.10;74.80
64987;DHT22;51532;52.108;9.360;2023-01-30T18:36:36;5.10;75.10
64987;DHT22;51532;52.108;9.360;2023-01-30T18:39:04;5.10;75.00